SARP/PSS METAR and TAF weather

Enter ICAO airport designator
Station Type Date Time Source
SARP METAR 2019/10/22 16:00 UTC NOAA

SARP 221600Z 14007KT 9999 FEW025 23/14 Q1016


Station Type Date Time Source
SARP Decoded METAR 2019/10/22 16:00 UTC NOAA

Posadas Aero., Argentina (SARP) 27-22S 055-58W 133M
Oct 22, 2019 - 12:00 PM EDT / 2019.10.22 1600 UTC
Wind: from the SE (140 degrees) at 8 MPH (7 KT):0
Visibility: greater than 7 mile(s):0
Sky conditions: mostly clear
Temperature: 73 F (23 C)
Dew Point: 57 F (14 C)
Relative Humidity: 56%
Pressure (altimeter): 30.00 in. Hg (1016 hPa)
ob: SARP 221600Z 14007KT 9999 FEW025 23/14 Q1016
cycle: 16

Station Type Date Time Source
SARP TAF 2019/10/22 12:18 UTC NOAA

TAF SARP 221100Z 2212/2312 16005KT CAVOK TX26/2218Z TN13/2310Z PROB40 2308/2311 2000 BR NSC

Example: see airport list